Time;durP1;ratioP1;P1;durP2;ratioP2;P2;SDS_P1;SDS_P2;PMS_P1;PMS_P2;Temp;Humidity;BMP_temperature;BMP_pressure;BME280_temperature;BME280_humidity;BME280_pressure;Samples;Min_cycle;Max_cycle;Signal;HPM_P1;HPM_P2
2023/01/05 00:00:47;;;;;;;0.30;0.30;;;;;;;;;;5084684;28;20208;-67
2023/01/05 00:03:13;;;;;;;0.20;0.20;;;;;;;;;;5084740;28;20197;-67
2023/01/05 00:05:39;;;;;;;0.20;0.20;;;;;;;;;;5084566;28;20203;-67
2023/01/05 00:08:06;;;;;;;1.73;0.75;;;;;;;;;;5084165;28;20200;-67
2023/01/05 00:24:13;;;;;;;0.30;0.30;;;;;;;;;;5084248;28;20191;-67
2023/01/05 00:26:39;;;;;;;0.50;0.50;;;;;;;;;;5084061;28;20211;-67
2023/01/05 00:29:06;;;;;;;0.40;0.40;;;;;;;;;;5083870;28;20220;-67
2023/01/05 00:31:33;;;;;;;0.20;0.20;;;;;;;;;;5084147;28;20500;-67
2023/01/05 00:33:59;;;;;;;0.30;0.30;;;;;;;;;;5084113;28;20543;-67
2023/01/05 00:36:26;;;;;;;0.47;0.47;;;;;;;;;;5084005;28;20550;-67
2023/01/05 00:38:52;;;;;;;0.30;0.30;;;;;;;;;;5083897;28;20200;-67
2023/01/05 00:41:18;;;;;;;0.30;0.30;;;;;;;;;;5083849;28;20522;-67
2023/01/05 00:43:45;;;;;;;0.38;0.38;;;;;;;;;;5083330;28;20399;-67
2023/01/05 00:46:11;;;;;;;0.52;0.52;;;;;;;;;;5083845;28;20364;-67
2023/01/05 00:48:39;;;;;;;0.73;0.70;;;;;;;;;;5083690;28;20423;-67
2023/01/05 00:51:05;;;;;;;0.30;0.30;;;;;;;;;;5083985;28;20196;-67
2023/01/05 00:53:31;;;;;;;0.70;0.30;;;;;;;;;;5083518;28;20228;-67
2023/01/05 00:55:58;;;;;;;1.98;0.20;;;;;;;;;;5083719;28;20192;-67
2023/01/05 00:58:24;;;;;;;0.55;0.50;;;;;;;;;;5083193;28;20364;-67
2023/01/05 01:00:50;;;;;;;0.52;0.40;;;;;;;;;;5083638;28;20219;-67
2023/01/05 01:03:17;;;;;;;0.30;0.30;;;;;;;;;;5083486;28;20199;-67
2023/01/05 01:05:44;;;;;;;0.50;0.50;;;;;;;;;;5083515;28;20205;-67
2023/01/05 01:08:11;;;;;;;0.50;0.50;;;;;;;;;;5083151;28;20202;-67
2023/01/05 01:10:38;;;;;;;0.20;0.20;;;;;;;;;;5083267;28;20196;-67
2023/01/05 01:13:05;;;;;;;0.30;0.30;;;;;;;;;;5083096;28;20413;-67
2023/01/05 01:15:31;;;;;;;0.30;0.30;;;;;;;;;;5083373;28;20220;-67
2023/01/05 01:17:57;;;;;;;0.47;0.47;;;;;;;;;;5083121;28;20203;-67
2023/01/05 01:20:23;;;;;;;1.05;0.20;;;;;;;;;;5083148;28;20196;-67
2023/01/05 01:22:51;;;;;;;1.42;0.40;;;;;;;;;;5082844;28;20208;-67
2023/01/05 01:25:17;;;;;;;0.43;0.43;;;;;;;;;;5082952;28;20204;-67
2023/01/05 01:27:43;;;;;;;0.20;0.20;;;;;;;;;;5083498;28;20220;-67
2023/01/05 01:30:10;;;;;;;0.70;0.28;;;;;;;;;;5082913;28;20196;-67
2023/01/05 01:32:37;;;;;;;0.20;0.20;;;;;;;;;;5083033;28;20234;-67
2023/01/05 01:35:03;;;;;;;0.20;0.20;;;;;;;;;;5082650;28;20221;-67
2023/01/05 01:37:29;;;;;;;0.30;0.30;;;;;;;;;;5082734;28;20204;-67
2023/01/05 01:39:57;;;;;;;0.30;0.30;;;;;;;;;;5082448;28;20242;-67
2023/01/05 01:42:23;;;;;;;0.10;0.10;;;;;;;;;;5082639;28;20206;-67
2023/01/05 01:44:51;;;;;;;0.20;0.20;;;;;;;;;;5082552;28;20200;-67
2023/01/05 01:47:19;;;;;;;0.85;0.20;;;;;;;;;;5082871;28;20208;-67
2023/01/05 01:49:45;;;;;;;0.30;0.30;;;;;;;;;;5082392;28;20204;-67
2023/01/05 01:52:11;;;;;;;0.95;0.20;;;;;;;;;;5082637;28;20200;-67
2023/01/05 01:54:38;;;;;;;0.30;0.30;;;;;;;;;;5082263;28;20261;-67
2023/01/05 01:57:06;;;;;;;1.55;0.20;;;;;;;;;;5081869;28;20496;-67
2023/01/05 01:59:32;;;;;;;0.20;0.20;;;;;;;;;;5082034;28;20196;-67
2023/01/05 02:02:00;;;;;;;0.28;0.28;;;;;;;;;;5082131;28;20388;-67
2023/01/05 02:04:27;;;;;;;0.20;0.20;;;;;;;;;;5082375;28;20198;-67
2023/01/05 02:06:53;;;;;;;0.30;0.30;;;;;;;;;;5082511;28;20201;-67
2023/01/05 02:09:19;;;;;;;1.33;0.30;;;;;;;;;;5082258;28;20196;-67
2023/01/05 02:11:51;;;;;;;0.30;0.30;;;;;;;;;;5082148;28;20211;-67
2023/01/05 02:14:25;;;;;;;0.20;0.20;;;;;;;;;;5082203;28;20535;-67
2023/01/05 02:16:58;;;;;;;0.20;0.20;;;;;;;;;;5082121;28;20487;-67
2023/01/05 02:19:43;;;;;;;0.10;0.10;;;;;;;;;;5082020;28;20203;-67
2023/01/05 02:22:15;;;;;;;0.20;0.20;;;;;;;;;;5082059;28;20249;-67
2023/01/05 02:25:00;;;;;;;0.70;0.20;;;;;;;;;;5082060;28;20197;-67
2023/01/05 02:27:36;;;;;;;0.25;0.10;;;;;;;;;;5082124;28;20539;-67
2023/01/05 02:30:33;;;;;;;0.40;0.30;;;;;;;;;;5081925;28;20196;-67
2023/01/05 02:33:06;;;;;;;0.20;0.20;;;;;;;;;;5082500;28;20204;-67
2023/01/05 02:35:36;;;;;;;0.13;0.13;;;;;;;;;;5082046;28;20416;-67
2023/01/05 02:38:06;;;;;;;0.57;0.20;;;;;;;;;;5081941;28;20219;-67
2023/01/05 02:40:36;;;;;;;0.20;0.20;;;;;;;;;;5081796;28;20208;-67
2023/01/05 02:43:03;;;;;;;0.47;0.20;;;;;;;;;;5082034;28;20200;-67
2023/01/05 02:45:29;;;;;;;0.10;0.10;;;;;;;;;;5081860;28;20200;-67
2023/01/05 02:47:56;;;;;;;0.20;0.20;;;;;;;;;;5081839;28;20204;-67
2023/01/05 02:50:26;;;;;;;0.17;0.17;;;;;;;;;;5081659;28;20197;-67
2023/01/05 02:52:53;;;;;;;0.25;0.10;;;;;;;;;;5081995;28;20419;-67
2023/01/05 02:55:23;;;;;;;0.20;0.20;;;;;;;;;;5081845;28;20220;-67
2023/01/05 02:57:52;;;;;;;0.75;0.22;;;;;;;;;;5081641;28;20200;-67
2023/01/05 03:00:20;;;;;;;0.15;0.10;;;;;;;;;;5081211;28;20518;-67
2023/01/05 03:02:48;;;;;;;0.20;0.20;;;;;;;;;;5081925;28;20189;-67
2023/01/05 03:05:16;;;;;;;0.20;0.20;;;;;;;;;;5081666;28;20199;-67
2023/01/05 03:07:45;;;;;;;0.10;0.10;;;;;;;;;;5083558;28;20196;-67
2023/01/05 03:15:42;;;;;;;0.28;0.20;;;;;;;;;;5085562;28;20234;-67
2023/01/05 03:18:10;;;;;;;0.20;0.20;;;;;;;;;;5085048;28;20204;-67
2023/01/05 03:20:39;;;;;;;0.10;0.10;;;;;;;;;;5085380;28;20189;-67
2023/01/05 03:37:02;;;;;;;0.15;0.15;;;;;;;;;;5085158;28;20511;-67
2023/01/05 03:39:30;;;;;;;0.20;0.20;;;;;;;;;;5084915;28;20196;-67
2023/01/05 03:41:57;;;;;;;0.28;0.10;;;;;;;;;;5084982;28;20199;-67
2023/01/05 03:44:23;;;;;;;0.20;0.20;;;;;;;;;;5085054;28;20215;-67
2023/01/05 03:46:50;;;;;;;0.82;0.20;;;;;;;;;;5084908;28;20204;-67
2023/01/05 03:49:17;;;;;;;0.30;0.30;;;;;;;;;;5084724;28;20208;-67
2023/01/05 03:51:43;;;;;;;0.20;0.20;;;;;;;;;;5084645;28;20306;-67
2023/01/05 03:54:10;;;;;;;0.10;0.10;;;;;;;;;;5084884;28;20518;-67
2023/01/05 03:56:38;;;;;;;0.22;0.20;;;;;;;;;;5084762;28;20196;-67
2023/01/05 03:59:04;;;;;;;0.20;0.20;;;;;;;;;;5084469;28;20203;-67
2023/01/05 04:01:30;;;;;;;0.10;0.10;;;;;;;;;;5084443;28;20204;-67
2023/01/05 04:03:56;;;;;;;1.42;0.30;;;;;;;;;;5084582;28;20234;-67
2023/01/05 04:06:23;;;;;;;0.17;0.17;;;;;;;;;;5084698;28;20201;-67
2023/01/05 04:08:49;;;;;;;0.20;0.20;;;;;;;;;;5084265;28;20195;-67
2023/01/05 04:11:17;;;;;;;0.28;0.20;;;;;;;;;;5084643;28;20197;-67
2023/01/05 04:13:44;;;;;;;0.20;0.20;;;;;;;;;;5084602;28;20391;-67
2023/01/05 04:16:11;;;;;;;0.20;0.20;;;;;;;;;;5084246;28;20220;-67
2023/01/05 04:18:37;;;;;;;0.25;0.25;;;;;;;;;;5083257;28;20200;-67
2023/01/05 04:21:04;;;;;;;0.20;0.20;;;;;;;;;;5084139;28;20218;-67
2023/01/05 04:23:30;;;;;;;0.15;0.15;;;;;;;;;;5084184;28;20314;-67
2023/01/05 04:25:57;;;;;;;0.30;0.30;;;;;;;;;;5084224;28;20516;-67
2023/01/05 04:28:23;;;;;;;0.20;0.20;;;;;;;;;;5083999;28;20223;-67
2023/01/05 04:30:52;;;;;;;0.20;0.20;;;;;;;;;;5084193;28;20298;-67
2023/01/05 04:33:19;;;;;;;2.25;2.05;;;;;;;;;;5083967;28;20208;-67
2023/01/05 04:35:45;;;;;;;1.83;1.73;;;;;;;;;;5084120;28;20224;-67
2023/01/05 04:38:12;;;;;;;0.30;0.30;;;;;;;;;;5084046;28;20196;-67
2023/01/05 04:40:38;;;;;;;0.40;0.20;;;;;;;;;;5084190;28;20204;-67
2023/01/05 04:43:05;;;;;;;0.30;0.30;;;;;;;;;;5083974;28;20303;-67
2023/01/05 04:45:32;;;;;;;0.17;0.17;;;;;;;;;;5083881;28;20383;-67
2023/01/05 04:47:59;;;;;;;1.17;0.20;;;;;;;;;;5083574;28;20387;-68
2023/01/05 04:50:26;;;;;;;0.28;0.20;;;;;;;;;;5083851;28;20188;-68
2023/01/05 04:52:52;;;;;;;0.20;0.20;;;;;;;;;;5083878;28;20496;-67
2023/01/05 04:55:18;;;;;;;0.17;0.17;;;;;;;;;;5083950;28;20396;-67
2023/01/05 04:57:45;;;;;;;0.40;0.17;;;;;;;;;;5083586;28;20204;-67
2023/01/05 05:00:11;;;;;;;0.10;0.10;;;;;;;;;;5083274;28;20203;-67
2023/01/05 05:02:37;;;;;;;0.30;0.22;;;;;;;;;;5083674;28;20227;-67
2023/01/05 05:05:05;;;;;;;0.20;0.20;;;;;;;;;;5083756;28;20198;-67
2023/01/05 05:07:32;;;;;;;0.52;0.30;;;;;;;;;;5083719;28;20196;-67
2023/01/05 05:09:58;;;;;;;0.17;0.17;;;;;;;;;;5083059;28;20204;-67
2023/01/05 05:12:24;;;;;;;0.10;0.10;;;;;;;;;;5083430;28;20399;-67
2023/01/05 05:14:50;;;;;;;0.40;0.20;;;;;;;;;;5083149;28;20413;-67
2023/01/05 05:17:17;;;;;;;0.70;0.30;;;;;;;;;;5083278;28;20196;-67
2023/01/05 05:19:43;;;;;;;0.20;0.20;;;;;;;;;;5082830;28;20204;-67
2023/01/05 05:22:11;;;;;;;0.20;0.20;;;;;;;;;;5083115;28;20522;-67
2023/01/05 05:24:37;;;;;;;0.20;0.20;;;;;;;;;;5083122;28;20196;-67
2023/01/05 05:27:04;;;;;;;0.20;0.20;;;;;;;;;;5082963;28;20201;-67
2023/01/05 05:29:30;;;;;;;0.30;0.30;;;;;;;;;;5082683;28;20197;-67
2023/01/05 05:31:56;;;;;;;0.20;0.20;;;;;;;;;;5082887;28;20858;-67
2023/01/05 05:34:23;;;;;;;0.20;0.20;;;;;;;;;;5083003;28;20201;-67
2023/01/05 05:36:49;;;;;;;0.70;0.20;;;;;;;;;;5082758;28;20230;-67
2023/01/05 05:39:17;;;;;;;0.75;0.30;;;;;;;;;;5082592;28;20223;-67
2023/01/05 05:41:43;;;;;;;1.45;0.20;;;;;;;;;;5082853;28;20196;-67
2023/01/05 05:44:09;;;;;;;0.10;0.10;;;;;;;;;;5082601;28;20532;-67
2023/01/05 05:46:35;;;;;;;0.20;0.20;;;;;;;;;;5082900;28;20515;-67
2023/01/05 05:49:03;;;;;;;0.20;0.20;;;;;;;;;;5082444;28;20208;-67
2023/01/05 05:51:31;;;;;;;0.20;0.20;;;;;;;;;;5082636;28;20200;-66
2023/01/05 05:53:57;;;;;;;0.20;0.20;;;;;;;;;;5082420;28;20219;-66
2023/01/05 05:56:25;;;;;;;0.28;0.28;;;;;;;;;;5082230;28;20224;-66
2023/01/05 05:58:51;;;;;;;0.30;0.30;;;;;;;;;;5082416;28;20205;-66
2023/01/05 06:01:17;;;;;;;0.20;0.20;;;;;;;;;;5082569;28;20196;-66
2023/01/05 06:03:44;;;;;;;1.25;0.30;;;;;;;;;;5082269;28;20197;-66
2023/01/05 06:06:10;;;;;;;1.65;0.30;;;;;;;;;;5082342;28;20192;-66
2023/01/05 06:08:36;;;;;;;0.47;0.30;;;;;;;;;;5081941;28;20196;-66
2023/01/05 06:11:02;;;;;;;0.45;0.45;;;;;;;;;;5082084;28;20204;-66
2023/01/05 06:13:30;;;;;;;1.38;0.35;;;;;;;;;;5082286;28;20197;-66
2023/01/05 06:15:56;;;;;;;2.05;0.60;;;;;;;;;;5081875;28;20228;-66
2023/01/05 06:18:22;;;;;;;1.48;0.52;;;;;;;;;;5081667;28;20207;-66
2023/01/05 06:20:49;;;;;;;1.15;0.90;;;;;;;;;;5081735;28;20197;-66
2023/01/05 06:23:15;;;;;;;0.80;0.80;;;;;;;;;;5081804;28;20204;-66
2023/01/05 06:25:41;;;;;;;1.60;0.93;;;;;;;;;;5082128;28;20367;-66
2023/01/05 06:28:08;;;;;;;0.65;0.65;;;;;;;;;;5081599;28;20407;-66
2023/01/05 06:30:35;;;;;;;1.20;1.20;;;;;;;;;;5081874;28;20196;-66
2023/01/05 06:33:01;;;;;;;0.80;0.80;;;;;;;;;;5081827;28;20192;-66
2023/01/05 06:35:28;;;;;;;0.57;0.57;;;;;;;;;;5081691;28;20554;-66
2023/01/05 06:37:54;;;;;;;0.70;0.70;;;;;;;;;;5081663;28;20196;-66
2023/01/05 06:40:20;;;;;;;3.33;3.15;;;;;;;;;;5081357;28;20234;-66
2023/01/05 06:42:47;;;;;;;1.48;1.00;;;;;;;;;;5081543;28;20203;-66
2023/01/05 06:45:14;;;;;;;1.17;1.17;;;;;;;;;;5081443;28;20198;-66
2023/01/05 06:47:43;;;;;;;1.42;1.33;;;;;;;;;;5065919;28;20515;-66
2023/01/05 06:50:09;;;;;;;2.05;0.75;;;;;;;;;;5066625;28;20418;-66
2023/01/05 06:52:38;;;;;;;1.50;1.40;;;;;;;;;;5075269;28;20523;-66
2023/01/05 06:55:05;;;;;;;2.78;1.40;;;;;;;;;;5066235;28;20208;-68
2023/01/05 06:57:31;;;;;;;4.10;3.38;;;;;;;;;;5075663;28;20208;-59
2023/01/05 06:59:58;;;;;;;3.42;2.72;;;;;;;;;;5072907;28;20288;-59
2023/01/05 07:02:24;;;;;;;2.15;1.80;;;;;;;;;;5072400;28;20220;-59
2023/01/05 07:04:52;;;;;;;2.83;2.55;;;;;;;;;;5072468;28;20212;-59
2023/01/05 07:07:18;;;;;;;4.63;2.30;;;;;;;;;;5073650;28;20211;-59
2023/01/05 07:09:48;;;;;;;1.60;1.00;;;;;;;;;;5072574;28;20249;-59
2023/01/05 07:12:14;;;;;;;1.92;0.90;;;;;;;;;;5073102;28;20212;-58
2023/01/05 07:14:40;;;;;;;6.03;0.98;;;;;;;;;;5072592;28;20212;-56
2023/01/05 07:17:06;;;;;;;2.88;1.52;;;;;;;;;;5072217;28;20224;-58
2023/01/05 07:19:33;;;;;;;2.97;1.15;;;;;;;;;;5071950;28;20204;-59
2023/01/05 07:22:00;;;;;;;2.50;2.33;;;;;;;;;;5072454;28;20223;-58
2023/01/05 07:24:26;;;;;;;3.15;2.10;;;;;;;;;;5072364;28;20614;-58
2023/01/05 07:26:53;;;;;;;1.40;1.35;;;;;;;;;;5072934;28;20205;-59
2023/01/05 07:29:19;;;;;;;1.95;1.85;;;;;;;;;;5070529;28;20236;-61
2023/01/05 07:31:46;;;;;;;2.90;1.42;;;;;;;;;;5072653;28;20213;-60
2023/01/05 07:34:12;;;;;;;1.67;0.88;;;;;;;;;;5073605;28;20209;-60
2023/01/05 07:36:39;;;;;;;2.15;0.73;;;;;;;;;;5073142;28;20585;-61
2023/01/05 07:39:06;;;;;;;1.73;0.65;;;;;;;;;;5072358;28;20398;-58
2023/01/05 07:41:33;;;;;;;2.58;0.70;;;;;;;;;;5072825;28;21131;-58
2023/01/05 07:43:59;;;;;;;4.00;1.00;;;;;;;;;;5072192;28;20215;-59
2023/01/05 07:46:25;;;;;;;1.48;1.38;;;;;;;;;;5072227;28;20212;-57
2023/01/05 07:48:52;;;;;;;1.38;0.95;;;;;;;;;;5070051;28;20223;-58
2023/01/05 07:51:18;;;;;;;2.10;1.60;;;;;;;;;;5073614;28;20212;-58
2023/01/05 07:53:44;;;;;;;2.92;1.10;;;;;;;;;;5074088;28;20212;-58
2023/01/05 07:56:12;;;;;;;1.55;0.98;;;;;;;;;;5077617;28;20232;-58
2023/01/05 07:58:38;;;;;;;4.55;1.02;;;;;;;;;;5076842;28;20228;-59
2023/01/05 08:01:06;;;;;;;2.25;1.13;;;;;;;;;;5076974;28;20208;-58
2023/01/05 08:03:32;;;;;;;1.05;0.95;;;;;;;;;;5076478;28;20212;-58
2023/01/05 08:05:58;;;;;;;3.17;1.38;;;;;;;;;;5077929;28;20551;-58
2023/01/05 08:08:25;;;;;;;3.65;1.05;;;;;;;;;;5077081;28;20208;-58
2023/01/05 08:10:51;;;;;;;2.38;0.90;;;;;;;;;;5077089;28;20212;-58
2023/01/05 08:16:02;;;;;;;1.95;1.00;;;;;;;;;;5077028;28;20274;-57
2023/01/05 08:18:28;;;;;;;1.48;0.80;;;;;;;;;;5076438;28;20519;-57
2023/01/05 08:20:55;;;;;;;4.25;0.98;;;;;;;;;;5076286;28;20535;-58
2023/01/05 08:23:22;;;;;;;1.33;0.80;;;;;;;;;;5077360;28;20216;-58
2023/01/05 08:25:48;;;;;;;1.38;0.70;;;;;;;;;;5077453;28;20524;-57
2023/01/05 08:28:14;;;;;;;6.45;0.80;;;;;;;;;;5075713;28;20544;-57
2023/01/05 08:30:42;;;;;;;1.10;0.70;;;;;;;;;;5076958;28;20285;-58
2023/01/05 08:33:08;;;;;;;3.25;0.80;;;;;;;;;;5076826;28;20431;-58
2023/01/05 08:35:39;;;;;;;4.43;1.20;;;;;;;;;;5077372;28;20214;-57
2023/01/05 08:38:05;;;;;;;0.52;0.52;;;;;;;;;;5076569;28;20235;-58
2023/01/05 08:40:31;;;;;;;0.93;0.80;;;;;;;;;;5076011;28;20382;-55
2023/01/05 08:42:57;;;;;;;1.40;0.80;;;;;;;;;;5077585;28;20522;-57
2023/01/05 08:45:24;;;;;;;3.47;1.10;;;;;;;;;;5077109;28;20414;-58
2023/01/05 08:47:51;;;;;;;5.93;0.90;;;;;;;;;;5075920;28;20216;-58
2023/01/05 08:50:18;;;;;;;1.95;1.05;;;;;;;;;;5076346;28;20204;-59
2023/01/05 08:52:44;;;;;;;1.10;0.98;;;;;;;;;;5076618;28;20520;-57
2023/01/05 08:55:10;;;;;;;1.30;0.70;;;;;;;;;;5076433;28;20207;-58
2023/01/05 08:57:37;;;;;;;1.60;1.02;;;;;;;;;;5076434;28;20232;-57
2023/01/05 09:00:03;;;;;;;2.83;1.35;;;;;;;;;;5075172;28;20213;-59
2023/01/05 09:02:29;;;;;;;1.02;0.93;;;;;;;;;;5075551;28;20219;-60
2023/01/05 09:04:57;;;;;;;1.35;1.20;;;;;;;;;;5076554;28;20212;-60
2023/01/05 09:07:23;;;;;;;7.40;1.23;;;;;;;;;;5077226;28;20210;-59
2023/01/05 09:09:50;;;;;;;5.88;1.17;;;;;;;;;;5076013;28;20212;-59
2023/01/05 09:12:16;;;;;;;2.65;0.95;;;;;;;;;;5075688;28;20542;-59
2023/01/05 09:14:42;;;;;;;5.55;1.25;;;;;;;;;;5075879;28;20218;-59
2023/01/05 09:17:08;;;;;;;2.97;1.02;;;;;;;;;;5074948;28;20228;-58
2023/01/05 09:19:35;;;;;;;2.35;1.17;;;;;;;;;;5075584;28;20212;-57
2023/01/05 09:22:02;;;;;;;5.50;1.48;;;;;;;;;;5075422;28;20415;-57
2023/01/05 09:24:29;;;;;;;6.57;1.10;;;;;;;;;;5074990;28;20431;-56
2023/01/05 09:26:56;;;;;;;8.35;1.65;;;;;;;;;;5075164;28;20200;-59
2023/01/05 09:29:22;;;;;;;8.35;1.65;;;;;;;;;;5074747;28;20590;-58
2023/01/05 09:31:48;;;;;;;4.65;1.17;;;;;;;;;;5075494;28;20213;-58
2023/01/05 09:34:15;;;;;;;7.15;2.03;;;;;;;;;;5074920;28;20212;-58
2023/01/05 09:36:41;;;;;;;6.78;1.85;;;;;;;;;;5075619;28;20232;-58
2023/01/05 09:39:09;;;;;;;8.77;2.15;;;;;;;;;;5073569;28;20431;-58
2023/01/05 09:41:38;;;;;;;6.22;1.83;;;;;;;;;;5074517;28;20216;-58
2023/01/05 09:44:05;;;;;;;10.35;2.15;;;;;;;;;;5075099;28;20295;-56
2023/01/05 09:46:33;;;;;;;5.53;2.20;;;;;;;;;;5074640;28;20411;-55
2023/01/05 09:49:01;;;;;;;11.88;2.03;;;;;;;;;;5073441;28;20220;-59
2023/01/05 09:51:27;;;;;;;10.55;2.20;;;;;;;;;;5074561;28;20219;-59
2023/01/05 09:53:54;;;;;;;8.60;2.20;;;;;;;;;;5075568;28;20258;-57
2023/01/05 09:56:26;;;;;;;8.88;1.75;;;;;;;;;;5075452;28;20232;-58
2023/01/05 09:58:52;;;;;;;8.65;1.83;;;;;;;;;;5075164;28;20208;-58
2023/01/05 10:01:19;;;;;;;7.43;1.98;;;;;;;;;;5074382;28;20218;-58
2023/01/05 10:03:54;;;;;;;9.55;2.28;;;;;;;;;;5074990;28;20220;-57
2023/01/05 10:06:22;;;;;;;13.15;2.33;;;;;;;;;;5075366;28;20546;-58
2023/01/05 10:08:49;;;;;;;13.52;3.08;;;;;;;;;;5074324;28;20710;-58
2023/01/05 10:14:06;;;;;;;10.13;2.22;;;;;;;;;;5074446;28;20231;-58
2023/01/05 10:16:32;;;;;;;11.80;2.17;;;;;;;;;;5074932;28;20231;-55
2023/01/05 10:19:00;;;;;;;10.75;2.40;;;;;;;;;;5073163;28;20409;-58
2023/01/05 10:21:30;;;;;;;11.85;2.13;;;;;;;;;;5074571;28;20242;-58
2023/01/05 10:24:03;;;;;;;14.38;2.50;;;;;;;;;;5075144;28;20213;-58
2023/01/05 10:26:33;;;;;;;7.15;2.03;;;;;;;;;;5071632;28;20250;-58
2023/01/05 10:29:02;;;;;;;9.30;2.08;;;;;;;;;;5073895;28;20228;-58
2023/01/05 10:31:35;;;;;;;11.23;2.72;;;;;;;;;;5074696;28;20212;-58
2023/01/05 10:34:07;;;;;;;7.10;2.10;;;;;;;;;;5074839;28;20215;-59
2023/01/05 10:36:40;;;;;;;12.95;1.85;;;;;;;;;;5074834;28;20252;-59
2023/01/05 10:39:11;;;;;;;10.40;2.08;;;;;;;;;;5074736;28;20209;-59
2023/01/05 10:41:42;;;;;;;11.88;2.47;;;;;;;;;;5074686;28;20277;-59
2023/01/05 10:44:27;;;;;;;8.20;2.53;;;;;;;;;;5074678;28;20216;-59
2023/01/05 10:46:54;;;;;;;12.30;2.33;;;;;;;;;;5075193;28;20268;-58
2023/01/05 10:49:24;;;;;;;9.25;2.33;;;;;;;;;;5073717;28;20208;-58
2023/01/05 10:51:50;;;;;;;8.57;2.30;;;;;;;;;;5074670;28;20211;-58
2023/01/05 10:54:25;;;;;;;10.65;2.55;;;;;;;;;;5075151;28;20223;-58
2023/01/05 10:56:51;;;;;;;9.65;2.08;;;;;;;;;;5074933;28;20717;-58
2023/01/05 10:59:17;;;;;;;9.27;2.50;;;;;;;;;;5073718;28;20219;-59
2023/01/05 11:01:45;;;;;;;11.18;2.15;;;;;;;;;;5073890;28;20227;-58
2023/01/05 11:04:15;;;;;;;11.00;2.20;;;;;;;;;;5073579;28;20212;-58
2023/01/05 11:06:42;;;;;;;6.55;1.83;;;;;;;;;;5074371;28;20437;-59
2023/01/05 11:09:15;;;;;;;6.47;2.00;;;;;;;;;;5074061;28;20219;-57
2023/01/05 11:11:42;;;;;;;12.07;2.05;;;;;;;;;;5074420;28;20220;-59
2023/01/05 11:14:14;;;;;;;8.10;2.08;;;;;;;;;;5074349;28;20539;-59
2023/01/05 11:16:46;;;;;;;6.00;1.48;;;;;;;;;;5074390;28;20228;-60
2023/01/05 11:19:15;;;;;;;7.25;1.60;;;;;;;;;;5074196;28;20212;-58
2023/01/05 11:21:44;;;;;;;8.90;2.20;;;;;;;;;;5074717;28;20227;-58
2023/01/05 11:24:26;;;;;;;9.25;2.65;;;;;;;;;;5074680;28;20212;-57
2023/01/05 11:26:53;;;;;;;11.35;2.85;;;;;;;;;;5075182;28;20208;-58
2023/01/05 11:29:19;;;;;;;9.32;1.90;;;;;;;;;;5076561;28;20232;-59
2023/01/05 11:31:48;;;;;;;14.23;3.03;;;;;;;;;;5078263;28;20294;-59
2023/01/05 11:34:21;;;;;;;10.40;3.08;;;;;;;;;;5078230;28;20656;-58
2023/01/05 11:36:51;;;;;;;11.30;2.40;;;;;;;;;;5078170;28;20244;-58
2023/01/05 11:39:21;;;;;;;6.82;2.08;;;;;;;;;;5077970;28;20208;-58
2023/01/05 11:41:47;;;;;;;10.35;2.30;;;;;;;;;;5078349;28;20554;-59
2023/01/05 11:44:19;;;;;;;9.25;2.20;;;;;;;;;;5078028;28;20209;-58
2023/01/05 11:46:46;;;;;;;6.10;1.70;;;;;;;;;;5078118;28;20582;-59
2023/01/05 11:49:17;;;;;;;9.43;1.65;;;;;;;;;;5077375;28;20210;-58
2023/01/05 11:51:44;;;;;;;6.00;1.30;;;;;;;;;;5077564;28;20208;-58
2023/01/05 11:54:31;;;;;;;8.80;2.30;;;;;;;;;;5076487;28;20212;-58
2023/01/05 11:57:06;;;;;;;10.77;2.22;;;;;;;;;;5076867;28;20232;-58
2023/01/05 11:59:37;;;;;;;10.23;2.03;;;;;;;;;;5075923;28;20218;-58
2023/01/05 12:02:09;;;;;;;10.73;2.10;;;;;;;;;;5077556;28;20247;-59
2023/01/05 12:04:48;;;;;;;10.07;1.92;;;;;;;;;;5077577;28;20219;-58
2023/01/05 12:07:21;;;;;;;9.95;2.08;;;;;;;;;;5078153;28;20204;-58
2023/01/05 12:09:50;;;;;;;12.32;2.42;;;;;;;;;;5077140;28;20258;-59
2023/01/05 12:12:24;;;;;;;8.43;1.92;;;;;;;;;;5077420;28;20216;-58
2023/01/05 12:15:02;;;;;;;12.35;2.00;;;;;;;;;;5077842;28;20208;-59
2023/01/05 12:17:33;;;;;;;8.52;1.85;;;;;;;;;;5077565;28;20228;-59
2023/01/05 12:20:04;;;;;;;6.93;1.77;;;;;;;;;;5077057;28;20212;-59
2023/01/05 12:22:57;;;;;;;7.38;1.98;;;;;;;;;;5076913;28;20222;-58
2023/01/05 12:25:30;;;;;;;7.60;2.03;;;;;;;;;;5032980;28;20288;-58
2023/01/05 12:28:10;;;;;;;7.95;2.30;;;;;;;;;;5062546;28;20231;-59
2023/01/05 12:30:38;;;;;;;12.70;2.25;;;;;;;;;;5077270;28;20212;-58
2023/01/05 12:33:11;;;;;;;9.38;2.15;;;;;;;;;;5076863;28;20238;-59
2023/01/05 12:36:01;;;;;;;8.18;2.30;;;;;;;;;;5077766;28;20212;-58
2023/01/05 12:38:36;;;;;;;8.43;1.95;;;;;;;;;;5076271;28;20228;-58
2023/01/05 12:41:08;;;;;;;12.73;2.40;;;;;;;;;;5076589;28;20235;-59
2023/01/05 12:43:42;;;;;;;12.73;2.65;;;;;;;;;;5077101;28;20205;-58
2023/01/05 12:46:17;;;;;;;12.23;2.40;;;;;;;;;;5077300;28;20532;-58
2023/01/05 12:48:44;;;;;;;7.50;2.08;;;;;;;;;;5076298;28;20608;-59
2023/01/05 12:51:14;;;;;;;11.63;2.60;;;;;;;;;;5076923;28;20523;-59
2023/01/05 12:53:44;;;;;;;11.02;2.35;;;;;;;;;;5075909;28;20220;-58
2023/01/05 12:56:17;;;;;;;8.90;2.42;;;;;;;;;;5077014;28;20212;-59
2023/01/05 12:58:46;;;;;;;8.48;2.40;;;;;;;;;;5076031;28;20232;-59
2023/01/05 13:01:19;;;;;;;10.40;2.47;;;;;;;;;;5076222;28;20377;-58
2023/01/05 13:03:47;;;;;;;11.13;2.38;;;;;;;;;;5076231;28;20250;-58
2023/01/05 13:06:16;;;;;;;10.95;2.20;;;;;;;;;;5076611;28;20219;-59
2023/01/05 13:08:44;;;;;;;11.02;2.67;;;;;;;;;;5075974;28;20246;-59
2023/01/05 13:11:15;;;;;;;13.07;2.30;;;;;;;;;;5076845;28;20216;-58
2023/01/05 13:13:45;;;;;;;9.73;2.30;;;;;;;;;;5076206;28;20212;-58
2023/01/05 13:16:13;;;;;;;7.50;1.92;;;;;;;;;;5075795;28;20212;-58
2023/01/05 13:18:41;;;;;;;8.65;2.28;;;;;;;;;;5075774;28;20232;-59
2023/01/05 13:21:08;;;;;;;10.38;2.15;;;;;;;;;;5056619;28;20224;-59
2023/01/05 13:23:37;;;;;;;10.40;2.42;;;;;;;;;;5074123;28;20564;-59
2023/01/05 13:26:05;;;;;;;10.43;2.55;;;;;;;;;;5075911;28;20220;-59
2023/01/05 13:28:31;;;;;;;15.07;2.22;;;;;;;;;;5075175;28;20228;-58
2023/01/05 13:31:25;;;;;;;10.73;2.05;;;;;;;;;;5076452;28;20212;-58
2023/01/05 13:34:06;;;;;;;11.98;2.53;;;;;;;;;;5031505;28;20217;-58
2023/01/05 13:36:40;;;;;;;10.27;2.35;;;;;;;;;;5072767;28;20218;-58
2023/01/05 13:39:17;;;;;;;11.10;2.08;;;;;;;;;;5075209;28;20231;-58
2023/01/05 13:42:04;;;;;;;11.68;2.53;;;;;;;;;;5076136;28;20219;-57
2023/01/05 13:44:49;;;;;;;9.48;2.42;;;;;;;;;;5070499;28;20208;-59
2023/01/05 13:47:19;;;;;;;11.45;2.30;;;;;;;;;;5075785;28;20215;-58
2023/01/05 13:50:01;;;;;;;10.23;2.75;;;;;;;;;;5074913;28;20212;-58
2023/01/05 13:52:34;;;;;;;11.93;2.45;;;;;;;;;;5074963;28;20218;-58
2023/01/05 13:55:02;;;;;;;12.77;2.15;;;;;;;;;;5075297;28;20220;-58
2023/01/05 13:57:29;;;;;;;11.35;2.72;;;;;;;;;;5074752;28;20238;-58
2023/01/05 13:59:57;;;;;;;14.52;2.88;;;;;;;;;;5074324;28;20204;-59
2023/01/05 14:02:29;;;;;;;11.35;2.38;;;;;;;;;;5075297;28;20447;-59
2023/01/05 14:04:57;;;;;;;10.02;2.42;;;;;;;;;;5075576;28;20216;-59
2023/01/05 14:07:23;;;;;;;10.68;2.70;;;;;;;;;;5074992;28;20212;-59
2023/01/05 14:09:51;;;;;;;11.35;2.78;;;;;;;;;;5075700;28;20209;-58
2023/01/05 14:12:41;;;;;;;6.00;2.10;;;;;;;;;;5075502;28;20542;-58
2023/01/05 14:15:22;;;;;;;13.77;2.55;;;;;;;;;;5075161;28;20369;-57
2023/01/05 14:17:51;;;;;;;6.88;2.00;;;;;;;;;;5055743;28;20465;-58
2023/01/05 14:20:48;;;;;;;9.90;2.75;;;;;;;;;;5075571;28;20219;-59
2023/01/05 14:23:33;;;;;;;12.00;2.20;;;;;;;;;;5013825;28;20249;-58
2023/01/05 14:26:01;;;;;;;11.07;2.80;;;;;;;;;;5067699;28;20482;-59
2023/01/05 14:28:42;;;;;;;11.23;2.47;;;;;;;;;;5074613;28;20230;-58
2023/01/05 14:31:42;;;;;;;11.50;2.72;;;;;;;;;;5075142;28;20212;-58
2023/01/05 14:34:13;;;;;;;9.80;2.05;;;;;;;;;;5074441;28;20404;-58
2023/01/05 14:36:40;;;;;;;12.32;3.00;;;;;;;;;;5075528;28;20422;-58
2023/01/05 14:39:07;;;;;;;10.02;2.78;;;;;;;;;;5074883;28;20284;-58
2023/01/05 14:41:35;;;;;;;14.82;2.42;;;;;;;;;;5074442;28;20500;-58
2023/01/05 14:44:03;;;;;;;17.50;2.78;;;;;;;;;;5075006;28;20231;-58
2023/01/05 14:46:44;;;;;;;15.40;2.83;;;;;;;;;;5074754;28;20220;-56
2023/01/05 14:49:18;;;;;;;15.65;2.72;;;;;;;;;;5074052;28;20380;-58
2023/01/05 14:51:52;;;;;;;12.80;2.58;;;;;;;;;;5073803;28;20219;-58
2023/01/05 14:54:33;;;;;;;17.48;3.20;;;;;;;;;;5075088;28;20212;-58
2023/01/05 14:57:15;;;;;;;14.68;2.33;;;;;;;;;;5074226;28;20221;-59
2023/01/05 14:59:42;;;;;;;17.55;3.47;;;;;;;;;;5070839;28;20566;-59
2023/01/05 15:02:26;;;;;;;8.57;2.65;;;;;;;;;;5074961;28;20212;-59
2023/01/05 15:04:54;;;;;;;12.68;3.30;;;;;;;;;;5077867;28;20546;-58
2023/01/05 15:07:28;;;;;;;12.55;2.65;;;;;;;;;;5079385;28;20208;-58
2023/01/05 15:10:13;;;;;;;15.88;2.83;;;;;;;;;;5078094;28;20215;-57
2023/01/05 15:12:48;;;;;;;12.38;2.83;;;;;;;;;;5078814;28;20223;-59
2023/01/05 15:15:42;;;;;;;12.70;2.70;;;;;;;;;;5078505;28;20218;-57
2023/01/05 15:18:26;;;;;;;14.65;2.92;;;;;;;;;;5077782;28;20228;-58
2023/01/05 15:21:08;;;;;;;14.65;2.60;;;;;;;;;;5078454;28;20216;-59
2023/01/05 15:23:42;;;;;;;14.30;2.88;;;;;;;;;;5079203;28;20258;-58
2023/01/05 15:26:15;;;;;;;16.30;2.88;;;;;;;;;;5078352;28;20212;-59
2023/01/05 15:28:53;;;;;;;8.27;2.40;;;;;;;;;;5076860;28;20231;-59
2023/01/05 15:31:27;;;;;;;11.57;2.97;;;;;;;;;;5077191;28;20558;-58